Time;durP1;ratioP1;P1;durP2;ratioP2;P2;SDS_P1;SDS_P2;PMS_P1;PMS_P2;Temp;Humidity;BMP_temperature;BMP_pressure;BME280_temperature;BME280_humidity;BME280_pressure;Samples;Min_cycle;Max_cycle;Signal;HPM_P1;HPM_P2
2023/03/31 00:01:08;;;;;;;1.73;1.17;;;;;;;;;;5004145;28;87746;-49
2023/03/31 00:03:42;;;;;;;4.47;1.10;;;;;;;;;;5002793;28;89321;-49
2023/03/31 00:06:16;;;;;;;1.87;0.67;;;;;;;;;;5003933;28;87072;-50
2023/03/31 00:08:50;;;;;;;1.50;0.87;;;;;;;;;;5004037;28;89067;-50
2023/03/31 00:11:19;;;;;;;5.03;1.10;;;;;;;;;;5003977;28;88702;-50
2023/03/31 00:13:47;;;;;;;4.00;1.37;;;;;;;;;;5004377;28;87534;-50
2023/03/31 00:16:16;;;;;;;5.73;1.47;;;;;;;;;;5003939;28;87148;-49
2023/03/31 00:18:46;;;;;;;2.27;0.90;;;;;;;;;;5004151;28;89023;-49
2023/03/31 00:21:23;;;;;;;0.73;0.60;;;;;;;;;;5002754;28;88980;-49
2023/03/31 00:23:53;;;;;;;1.13;1.03;;;;;;;;;;5004365;28;87020;-49
2023/03/31 00:26:22;;;;;;;0.90;0.77;;;;;;;;;;5002884;28;87126;-50
2023/03/31 00:28:50;;;;;;;1.33;1.10;;;;;;;;;;5003521;28;89103;-49
2023/03/31 00:31:19;;;;;;;1.00;0.53;;;;;;;;;;5003023;28;88731;-49
2023/03/31 00:33:47;;;;;;;4.10;1.00;;;;;;;;;;5000097;28;87118;-49
2023/03/31 00:36:20;;;;;;;2.93;0.77;;;;;;;;;;4993666;28;87060;-49
2023/03/31 00:38:50;;;;;;;2.27;1.00;;;;;;;;;;5002747;28;89160;-49
2023/03/31 00:41:18;;;;;;;2.73;1.00;;;;;;;;;;5002262;28;88943;-49
2023/03/31 00:44:00;;;;;;;0.70;0.70;;;;;;;;;;5003694;28;87021;-49
2023/03/31 00:46:30;;;;;;;1.70;0.83;;;;;;;;;;5003595;28;86405;-50
2023/03/31 00:48:59;;;;;;;1.73;0.80;;;;;;;;;;5003511;28;88209;-49
2023/03/31 00:51:29;;;;;;;3.23;1.00;;;;;;;;;;5003114;28;88861;-49
2023/03/31 00:53:59;;;;;;;0.90;0.77;;;;;;;;;;5002972;28;87976;-49
2023/03/31 00:56:28;;;;;;;2.10;0.67;;;;;;;;;;5002631;28;87091;-49
2023/03/31 00:58:56;;;;;;;3.37;1.40;;;;;;;;;;5002996;28;89173;-49
2023/03/31 01:01:25;;;;;;;2.87;1.10;;;;;;;;;;4999449;28;89008;-49
2023/03/31 01:03:53;;;;;;;2.43;0.80;;;;;;;;;;5009068;28;87073;-49
2023/03/31 01:06:22;;;;;;;3.97;1.23;;;;;;;;;;5002466;28;87032;-50
2023/03/31 01:08:52;;;;;;;2.07;1.53;;;;;;;;;;5003368;28;89042;-49
2023/03/31 01:11:21;;;;;;;2.67;1.30;;;;;;;;;;4998822;28;87962;-49
2023/03/31 01:13:50;;;;;;;1.40;0.83;;;;;;;;;;5000104;28;87044;-49
2023/03/31 01:16:18;;;;;;;1.50;0.83;;;;;;;;;;5002811;28;87072;-50
2023/03/31 01:18:48;;;;;;;2.07;1.10;;;;;;;;;;5002487;28;88915;-50
2023/03/31 01:21:46;;;;;;;1.93;1.03;;;;;;;;;;5002810;28;89824;-49
2023/03/31 01:24:34;;;;;;;1.10;1.00;;;;;;;;;;5002717;28;87016;-49
2023/03/31 01:27:08;;;;;;;3.07;1.03;;;;;;;;;;4946018;28;88062;-49
2023/03/31 01:29:57;;;;;;;2.03;1.30;;;;;;;;;;5002227;28;88176;-49
2023/03/31 01:32:31;;;;;;;1.90;1.03;;;;;;;;;;4991221;28;88920;-50
2023/03/31 01:35:08;;;;;;;1.27;1.13;;;;;;;;;;5001790;28;87052;-49
2023/03/31 01:37:55;;;;;;;2.67;1.03;;;;;;;;;;5002639;28;86378;-49
2023/03/31 01:40:38;;;;;;;1.00;0.90;;;;;;;;;;5001668;28;89210;-49
2023/03/31 01:43:09;;;;;;;2.53;1.07;;;;;;;;;;4949568;28;88582;-49
2023/03/31 01:45:40;;;;;;;2.30;1.00;;;;;;;;;;5002331;28;87890;-49
2023/03/31 01:48:11;;;;;;;1.10;1.00;;;;;;;;;;5002410;28;86989;-49
2023/03/31 01:50:41;;;;;;;2.17;1.07;;;;;;;;;;5002415;28;89221;-49
2023/03/31 01:53:11;;;;;;;0.90;0.63;;;;;;;;;;5003211;28;87934;-49
2023/03/31 01:55:41;;;;;;;6.53;1.00;;;;;;;;;;5002841;28;86812;-49
2023/03/31 01:58:12;;;;;;;1.27;1.00;;;;;;;;;;5003150;28;87101;-49
2023/03/31 02:00:41;;;;;;;1.77;0.90;;;;;;;;;;4983076;28;89225;-50
2023/03/31 02:03:11;;;;;;;1.60;1.43;;;;;;;;;;5002775;28;87800;-49
2023/03/31 02:05:42;;;;;;;2.47;1.10;;;;;;;;;;5002337;28;87003;-49
2023/03/31 02:08:11;;;;;;;3.30;1.17;;;;;;;;;;4987927;28;87421;-49
2023/03/31 02:10:40;;;;;;;1.30;1.13;;;;;;;;;;4993843;28;89109;-49
2023/03/31 02:13:08;;;;;;;1.43;0.50;;;;;;;;;;4994569;28;87772;-49
2023/03/31 02:15:38;;;;;;;1.37;0.87;;;;;;;;;;4999845;28;87031;-49
2023/03/31 02:18:10;;;;;;;2.47;0.90;;;;;;;;;;5001801;28;87081;-49
2023/03/31 02:20:40;;;;;;;1.47;1.33;;;;;;;;;;5001772;28;89026;-49
2023/03/31 02:23:09;;;;;;;2.40;1.07;;;;;;;;;;5001024;28;87795;-49
2023/03/31 02:25:37;;;;;;;2.30;1.13;;;;;;;;;;4989855;28;87068;-49
2023/03/31 02:28:09;;;;;;;1.00;0.90;;;;;;;;;;4995246;28;86289;-49
2023/03/31 02:30:41;;;;;;;1.20;1.10;;;;;;;;;;5000733;28;89271;-49
2023/03/31 02:33:09;;;;;;;0.87;0.70;;;;;;;;;;4999056;28;87782;-50
2023/03/31 02:35:37;;;;;;;0.87;0.67;;;;;;;;;;4999546;28;87956;-49
2023/03/31 02:38:07;;;;;;;1.17;0.80;;;;;;;;;;5000204;28;87032;-49
2023/03/31 02:40:35;;;;;;;2.43;1.10;;;;;;;;;;5001449;28;89184;-49
2023/03/31 02:43:03;;;;;;;2.20;0.87;;;;;;;;;;4999354;28;87919;-49
2023/03/31 02:45:41;;;;;;;6.23;1.43;;;;;;;;;;5000106;28;87100;-49
2023/03/31 02:48:10;;;;;;;1.13;0.70;;;;;;;;;;4999714;28;87903;-49
2023/03/31 02:50:42;;;;;;;1.77;1.10;;;;;;;;;;5001597;28;87832;-49
2023/03/31 02:53:11;;;;;;;1.00;0.90;;;;;;;;;;5000861;28;87555;-49
2023/03/31 02:55:49;;;;;;;2.43;1.03;;;;;;;;;;4998204;28;87261;-49
2023/03/31 02:58:22;;;;;;;1.43;0.60;;;;;;;;;;4997998;28;87150;-49
2023/03/31 03:01:00;;;;;;;2.10;1.20;;;;;;;;;;4989052;28;90135;-49
2023/03/31 03:03:30;;;;;;;2.13;1.13;;;;;;;;;;4989682;28;88926;-49
2023/03/31 03:06:01;;;;;;;2.13;1.03;;;;;;;;;;5000944;28;87097;-49
2023/03/31 03:08:35;;;;;;;1.60;0.77;;;;;;;;;;4990188;28;87057;-50
2023/03/31 03:11:06;;;;;;;2.87;1.47;;;;;;;;;;5000616;28;88272;-49
2023/03/31 03:13:36;;;;;;;2.07;1.10;;;;;;;;;;4997808;28;87487;-49
2023/03/31 03:16:06;;;;;;;2.33;1.03;;;;;;;;;;4999678;28;86995;-49
2023/03/31 03:18:35;;;;;;;2.23;0.90;;;;;;;;;;5000399;28;86421;-49
2023/03/31 03:21:03;;;;;;;0.90;0.70;;;;;;;;;;4999035;28;89160;-49
2023/03/31 03:23:32;;;;;;;1.00;0.77;;;;;;;;;;4990787;28;88915;-49
2023/03/31 03:26:00;;;;;;;0.80;0.70;;;;;;;;;;4999687;28;88427;-50
2023/03/31 03:28:28;;;;;;;1.17;0.90;;;;;;;;;;5000478;28;87136;-49
2023/03/31 03:30:56;;;;;;;1.23;0.80;;;;;;;;;;5001016;28;88915;-49
2023/03/31 03:33:26;;;;;;;0.80;0.80;;;;;;;;;;5000484;28;87872;-49
2023/03/31 03:35:54;;;;;;;3.77;1.13;;;;;;;;;;5001270;28;86921;-49
2023/03/31 03:38:23;;;;;;;0.97;0.80;;;;;;;;;;5000602;28;87137;-49
2023/03/31 03:40:53;;;;;;;4.07;1.00;;;;;;;;;;4995725;28;88730;-49
2023/03/31 03:43:21;;;;;;;1.17;0.97;;;;;;;;;;4992297;28;88747;-49
2023/03/31 03:45:50;;;;;;;0.57;0.57;;;;;;;;;;4999723;28;86889;-50
2023/03/31 03:48:18;;;;;;;0.93;0.70;;;;;;;;;;5000585;28;87192;-49
2023/03/31 03:50:48;;;;;;;1.43;0.80;;;;;;;;;;5000227;28;89913;-49
2023/03/31 03:53:16;;;;;;;2.57;0.70;;;;;;;;;;4986008;28;88941;-49
2023/03/31 03:55:47;;;;;;;1.00;0.60;;;;;;;;;;5001202;28;87051;-49
2023/03/31 03:58:16;;;;;;;1.47;1.00;;;;;;;;;;4999771;28;87056;-49
2023/03/31 04:00:45;;;;;;;0.40;0.40;;;;;;;;;;4985441;28;88206;-49
2023/03/31 04:03:13;;;;;;;0.60;0.60;;;;;;;;;;4988616;28;88668;-49
2023/03/31 04:05:41;;;;;;;0.80;0.80;;;;;;;;;;4981412;28;87947;-49
2023/03/31 04:08:11;;;;;;;2.97;1.17;;;;;;;;;;4982122;28;86890;-49
2023/03/31 04:10:40;;;;;;;1.17;0.63;;;;;;;;;;4990394;28;89184;-49
2023/03/31 04:13:08;;;;;;;0.50;0.40;;;;;;;;;;4997010;28;88868;-49
2023/03/31 04:15:37;;;;;;;0.73;0.60;;;;;;;;;;5003318;28;88210;-49
2023/03/31 04:18:05;;;;;;;0.60;0.60;;;;;;;;;;4999231;28;87041;-49
2023/03/31 04:20:36;;;;;;;2.53;1.00;;;;;;;;;;5003995;28;87844;-49
2023/03/31 04:23:08;;;;;;;0.87;0.60;;;;;;;;;;5003587;28;88963;-49
2023/03/31 04:25:45;;;;;;;1.07;1.00;;;;;;;;;;5002816;28;87044;-49
2023/03/31 04:28:13;;;;;;;0.70;0.70;;;;;;;;;;5001529;28;87177;-49
2023/03/31 04:30:42;;;;;;;0.50;0.50;;;;;;;;;;5003640;28;88222;-49
2023/03/31 04:33:14;;;;;;;1.20;0.90;;;;;;;;;;4999652;28;88586;-49
2023/03/31 04:35:47;;;;;;;0.50;0.50;;;;;;;;;;5003598;28;87728;-49
2023/03/31 04:38:18;;;;;;;0.70;0.40;;;;;;;;;;4992286;28;86984;-49
2023/03/31 04:40:48;;;;;;;0.50;0.50;;;;;;;;;;4996676;28;89903;-50
2023/03/31 04:43:17;;;;;;;0.90;0.80;;;;;;;;;;5001849;28;88723;-49
2023/03/31 04:45:45;;;;;;;0.90;0.63;;;;;;;;;;5003615;28;87193;-49
2023/03/31 04:48:13;;;;;;;0.73;0.73;;;;;;;;;;5000510;28;87032;-49
2023/03/31 04:50:42;;;;;;;3.40;1.20;;;;;;;;;;5003006;28;88977;-50
2023/03/31 04:53:10;;;;;;;1.43;0.60;;;;;;;;;;5003658;28;88883;-50
2023/03/31 04:55:38;;;;;;;0.50;0.40;;;;;;;;;;5003249;28;87261;-49
2023/03/31 04:58:08;;;;;;;0.60;0.57;;;;;;;;;;5002402;28;86453;-50
2023/03/31 05:00:36;;;;;;;1.50;0.50;;;;;;;;;;5001479;28;87049;-49
2023/03/31 05:03:05;;;;;;;1.07;0.60;;;;;;;;;;4997596;28;87701;-50
2023/03/31 05:05:33;;;;;;;0.90;0.90;;;;;;;;;;4997241;28;87999;-49
2023/03/31 05:08:02;;;;;;;0.70;0.50;;;;;;;;;;4999643;28;86970;-49
2023/03/31 05:10:30;;;;;;;2.93;1.10;;;;;;;;;;5002933;28;89119;-49
2023/03/31 05:12:58;;;;;;;1.20;1.07;;;;;;;;;;4996288;28;87809;-49
2023/03/31 05:15:28;;;;;;;1.37;0.80;;;;;;;;;;4991412;28;86851;-48
2023/03/31 05:17:58;;;;;;;1.93;0.53;;;;;;;;;;4990760;28;87452;-49
2023/03/31 05:20:26;;;;;;;1.17;0.63;;;;;;;;;;5002548;28;87953;-50
2023/03/31 05:22:54;;;;;;;0.60;0.60;;;;;;;;;;4992839;28;88960;-49
2023/03/31 05:25:23;;;;;;;0.97;0.50;;;;;;;;;;5002289;28;86946;-49
2023/03/31 05:27:51;;;;;;;1.60;1.50;;;;;;;;;;5002256;28;87043;-48
2023/03/31 05:30:20;;;;;;;9.00;3.07;;;;;;;;;;5001517;28;89235;-48
2023/03/31 05:32:49;;;;;;;4.10;3.27;;;;;;;;;;4995195;28;89840;-48
2023/03/31 05:35:18;;;;;;;3.80;2.40;;;;;;;;;;4990228;28;88608;-49
2023/03/31 05:37:46;;;;;;;7.03;4.07;;;;;;;;;;4988262;28;87031;-49
2023/03/31 05:40:14;;;;;;;8.20;4.67;;;;;;;;;;4996023;28;87908;-48
2023/03/31 05:42:43;;;;;;;5.70;3.03;;;;;;;;;;4981288;28;87851;-49
2023/03/31 05:45:12;;;;;;;3.83;2.40;;;;;;;;;;4982541;28;86866;-48
2023/03/31 05:47:40;;;;;;;2.90;2.30;;;;;;;;;;4980190;28;87807;-48
2023/03/31 05:50:11;;;;;;;2.83;2.37;;;;;;;;;;4980890;28;88346;-48
2023/03/31 05:52:41;;;;;;;4.80;2.97;;;;;;;;;;4981033;28;87055;-48
2023/03/31 05:55:10;;;;;;;2.07;1.87;;;;;;;;;;4980615;28;88060;-49
2023/03/31 05:57:39;;;;;;;3.57;2.87;;;;;;;;;;4981424;28;87595;-48
2023/03/31 06:00:10;;;;;;;1.97;1.67;;;;;;;;;;4981324;28;88276;-48
2023/03/31 06:02:39;;;;;;;1.53;1.43;;;;;;;;;;4981265;28;88956;-48
2023/03/31 06:05:08;;;;;;;4.23;1.67;;;;;;;;;;4980919;28;88673;-48
2023/03/31 06:07:38;;;;;;;3.30;2.03;;;;;;;;;;4982506;28;87152;-48
2023/03/31 06:10:09;;;;;;;1.63;1.50;;;;;;;;;;4981456;28;89174;-48
2023/03/31 06:12:38;;;;;;;1.93;1.60;;;;;;;;;;4966337;28;87836;-49
2023/03/31 06:15:06;;;;;;;1.77;1.23;;;;;;;;;;4982283;28;86987;-48
2023/03/31 06:17:35;;;;;;;1.70;1.60;;;;;;;;;;4981115;28;87167;-48
2023/03/31 06:20:06;;;;;;;2.27;1.57;;;;;;;;;;4980884;28;89303;-48
2023/03/31 06:22:56;;;;;;;1.40;1.00;;;;;;;;;;4980647;28;88717;-49
2023/03/31 06:25:24;;;;;;;2.67;0.97;;;;;;;;;;4972960;28;87010;-49
2023/03/31 06:27:52;;;;;;;3.50;1.30;;;;;;;;;;4981717;28;87045;-49
2023/03/31 06:30:21;;;;;;;5.27;1.00;;;;;;;;;;4981038;28;88178;-49
2023/03/31 06:32:49;;;;;;;0.73;0.73;;;;;;;;;;4980768;28;87828;-49
2023/03/31 06:35:17;;;;;;;0.80;0.80;;;;;;;;;;4980895;28;86829;-49
2023/03/31 06:37:46;;;;;;;2.90;0.97;;;;;;;;;;4981053;28;88506;-49
2023/03/31 06:40:16;;;;;;;2.23;0.93;;;;;;;;;;4980506;28;88297;-49
2023/03/31 06:42:44;;;;;;;1.03;0.73;;;;;;;;;;4999895;28;88756;-49
2023/03/31 06:45:12;;;;;;;1.83;0.80;;;;;;;;;;4997816;28;88012;-49
2023/03/31 06:47:41;;;;;;;0.47;0.40;;;;;;;;;;4989522;28;87032;-49
2023/03/31 06:50:10;;;;;;;3.70;0.50;;;;;;;;;;5000190;28;88068;-49
2023/03/31 06:52:39;;;;;;;0.50;0.50;;;;;;;;;;4999702;28;88926;-49
2023/03/31 06:55:08;;;;;;;2.70;0.70;;;;;;;;;;4986435;28;87768;-49
2023/03/31 06:57:38;;;;;;;0.60;0.30;;;;;;;;;;4997013;28;87081;-49
2023/03/31 07:00:07;;;;;;;1.77;0.80;;;;;;;;;;4997534;28;88017;-50
2023/03/31 07:02:36;;;;;;;1.17;0.37;;;;;;;;;;4986209;28;87984;-49
2023/03/31 07:05:05;;;;;;;0.80;0.70;;;;;;;;;;5001639;28;86982;-51
2023/03/31 07:07:34;;;;;;;0.40;0.40;;;;;;;;;;5000819;28;87066;-49
2023/03/31 07:10:02;;;;;;;1.10;0.43;;;;;;;;;;5000001;28;88824;-49
2023/03/31 07:12:33;;;;;;;0.50;0.40;;;;;;;;;;4999308;28;87411;-49
2023/03/31 07:15:03;;;;;;;0.80;0.50;;;;;;;;;;5000137;28;87173;-49
2023/03/31 07:17:31;;;;;;;0.47;0.40;;;;;;;;;;4998811;28;87039;-49
2023/03/31 07:19:59;;;;;;;0.40;0.40;;;;;;;;;;4998731;28;89327;-49
2023/03/31 07:22:28;;;;;;;0.40;0.40;;;;;;;;;;4990216;28;88567;-49
2023/03/31 07:24:56;;;;;;;0.60;0.60;;;;;;;;;;5000403;28;86979;-49
2023/03/31 07:27:24;;;;;;;1.17;0.50;;;;;;;;;;4987049;28;86321;-49
2023/03/31 07:29:53;;;;;;;1.17;0.77;;;;;;;;;;4984424;28;88158;-49
2023/03/31 07:32:23;;;;;;;0.83;0.60;;;;;;;;;;4988821;28;88984;-49
2023/03/31 07:34:55;;;;;;;0.30;0.30;;;;;;;;;;4989289;28;87957;-49
2023/03/31 07:37:24;;;;;;;1.50;0.50;;;;;;;;;;5000578;28;86960;-49
2023/03/31 07:39:52;;;;;;;0.70;0.40;;;;;;;;;;4990971;28;88120;-49
2023/03/31 07:42:21;;;;;;;0.63;0.43;;;;;;;;;;4986548;28;87126;-49
2023/03/31 07:44:50;;;;;;;0.33;0.33;;;;;;;;;;4988589;28;87692;-49
2023/03/31 07:47:18;;;;;;;0.67;0.37;;;;;;;;;;4999311;28;87098;-49
2023/03/31 07:49:48;;;;;;;1.60;0.30;;;;;;;;;;5001952;28;89361;-49
2023/03/31 07:52:17;;;;;;;0.27;0.27;;;;;;;;;;5004195;28;88594;-49
2023/03/31 07:54:45;;;;;;;1.00;0.30;;;;;;;;;;4996389;28;87035;-49
2023/03/31 07:57:15;;;;;;;3.50;0.50;;;;;;;;;;4993441;28;87141;-49
2023/03/31 07:59:43;;;;;;;0.30;0.30;;;;;;;;;;5003578;28;88999;-49
2023/03/31 08:02:12;;;;;;;0.40;0.40;;;;;;;;;;4994974;28;87626;-49
2023/03/31 08:04:41;;;;;;;0.43;0.43;;;;;;;;;;5001508;28;87163;-50
2023/03/31 08:07:10;;;;;;;0.30;0.20;;;;;;;;;;5002517;28;88999;-49
2023/03/31 08:09:39;;;;;;;0.83;0.40;;;;;;;;;;5004210;28;89320;-49
2023/03/31 08:12:07;;;;;;;0.53;0.53;;;;;;;;;;5003192;28;88904;-49
2023/03/31 08:14:35;;;;;;;0.30;0.30;;;;;;;;;;4994446;28;88557;-49
2023/03/31 08:17:08;;;;;;;2.17;1.03;;;;;;;;;;4993032;28;86405;-49
2023/03/31 08:19:36;;;;;;;4.57;0.83;;;;;;;;;;5006568;28;89275;-49
2023/03/31 08:22:05;;;;;;;3.37;1.83;;;;;;;;;;5004404;28;87744;-49
2023/03/31 08:24:34;;;;;;;4.17;1.60;;;;;;;;;;5000486;28;88059;-49
2023/03/31 08:27:03;;;;;;;10.43;1.50;;;;;;;;;;4991629;28;87516;-49
2023/03/31 08:29:31;;;;;;;3.07;1.10;;;;;;;;;;5000403;28;87936;-49
2023/03/31 08:32:00;;;;;;;9.97;1.83;;;;;;;;;;4999387;28;88142;-49
2023/03/31 08:34:28;;;;;;;9.77;1.80;;;;;;;;;;4992775;28;87054;-49
2023/03/31 08:36:56;;;;;;;13.33;2.00;;;;;;;;;;5003599;28;86952;-49
2023/03/31 08:39:26;;;;;;;8.53;1.50;;;;;;;;;;5003731;28;88256;-49
2023/03/31 08:41:57;;;;;;;7.77;2.27;;;;;;;;;;5003095;28;88824;-49
2023/03/31 08:44:27;;;;;;;7.87;2.03;;;;;;;;;;4990033;28;86759;-49
2023/03/31 08:46:55;;;;;;;4.00;1.70;;;;;;;;;;4983815;28;86904;-49
2023/03/31 08:49:24;;;;;;;17.07;2.73;;;;;;;;;;4995392;28;90233;-49
2023/03/31 08:51:52;;;;;;;5.70;2.03;;;;;;;;;;5003359;28;88782;-49
2023/03/31 08:54:21;;;;;;;7.00;2.70;;;;;;;;;;5003389;28;87281;-49
2023/03/31 08:56:50;;;;;;;8.93;2.77;;;;;;;;;;4996065;28;87070;-49
2023/03/31 08:59:21;;;;;;;8.43;2.73;;;;;;;;;;4989923;28;88039;-49
2023/03/31 09:01:50;;;;;;;8.37;1.87;;;;;;;;;;5003000;28;87040;-49
2023/03/31 09:04:27;;;;;;;5.17;1.33;;;;;;;;;;5001243;28;86972;-49
2023/03/31 09:06:56;;;;;;;9.67;2.87;;;;;;;;;;4963823;28;86359;-49
2023/03/31 09:09:26;;;;;;;17.90;2.37;;;;;;;;;;4970631;28;88252;-49
2023/03/31 09:11:54;;;;;;;15.70;2.67;;;;;;;;;;5002849;28;88017;-49
2023/03/31 09:14:28;;;;;;;10.40;3.60;;;;;;;;;;4981294;28;88025;-49
2023/03/31 09:17:00;;;;;;;14.73;3.07;;;;;;;;;;4983553;28;86943;-49
2023/03/31 09:19:31;;;;;;;9.73;2.63;;;;;;;;;;4983066;28;88944;-49
2023/03/31 09:22:00;;;;;;;17.70;3.30;;;;;;;;;;4995561;28;88809;-49
2023/03/31 09:24:29;;;;;;;12.90;3.83;;;;;;;;;;5002522;28;86827;-49
2023/03/31 09:27:01;;;;;;;13.53;1.80;;;;;;;;;;5003241;28;86860;-49
2023/03/31 09:29:30;;;;;;;19.83;3.53;;;;;;;;;;5002588;28;88191;-50
2023/03/31 09:32:02;;;;;;;7.47;1.87;;;;;;;;;;4989220;28;86994;-49
2023/03/31 09:34:31;;;;;;;9.27;2.00;;;;;;;;;;4982219;28;87079;-49
2023/03/31 09:36:59;;;;;;;10.60;1.73;;;;;;;;;;4982398;28;87097;-49
2023/03/31 09:39:27;;;;;;;12.90;2.47;;;;;;;;;;4980411;28;88886;-49
2023/03/31 10:17:50;;;;;;;8.33;1.67;;;;;;;;;;5139247;27;81920;-71
2023/03/31 10:20:28;;;;;;;5.67;2.13;;;;;;;;;;5118639;27;81753;-67
2023/03/31 10:22:56;;;;;;;5.60;1.80;;;;;;;;;;5129424;27;81688;-69
2023/03/31 10:25:25;;;;;;;2.23;1.50;;;;;;;;;;5129938;27;83969;-68
2023/03/31 10:27:53;;;;;;;3.73;2.17;;;;;;;;;;5126920;27;83176;-70
2023/03/31 10:30:22;;;;;;;3.30;2.30;;;;;;;;;;5143985;27;81638;-70
2023/03/31 10:32:52;;;;;;;8.40;1.37;;;;;;;;;;5144928;27;81648;-70
2023/03/31 10:35:23;;;;;;;16.73;2.67;;;;;;;;;;5144497;27;83781;-70
2023/03/31 10:37:51;;;;;;;9.93;1.83;;;;;;;;;;5145336;27;82716;-70
2023/03/31 10:40:20;;;;;;;5.10;1.53;;;;;;;;;;5144690;27;82460;-70
2023/03/31 10:42:50;;;;;;;5.30;1.77;;;;;;;;;;5144294;27;81718;-70
2023/03/31 10:45:25;;;;;;;11.67;1.80;;;;;;;;;;5144445;27;83821;-69
2023/03/31 10:48:06;;;;;;;3.83;1.20;;;;;;;;;;5144298;27;83512;-69
2023/03/31 10:50:35;;;;;;;1.47;1.37;;;;;;;;;;5144767;27;81527;-70
2023/03/31 10:53:04;;;;;;;6.57;2.50;;;;;;;;;;5144913;27;81662;-70
2023/03/31 10:55:34;;;;;;;5.60;1.70;;;;;;;;;;5145051;27;83498;-70
2023/03/31 10:58:03;;;;;;;4.57;1.30;;;;;;;;;;5144518;27;83312;-70
2023/03/31 11:00:32;;;;;;;4.77;0.93;;;;;;;;;;5144765;27;82306;-70
2023/03/31 11:03:27;;;;;;;2.40;1.73;;;;;;;;;;5144682;27;81616;-70
2023/03/31 11:05:57;;;;;;;8.57;1.50;;;;;;;;;;5083373;27;83890;-70
2023/03/31 11:08:35;;;;;;;5.23;1.67;;;;;;;;;;5144304;27;83086;-71
2023/03/31 11:11:07;;;;;;;11.73;1.20;;;;;;;;;;5144209;27;82400;-71
2023/03/31 11:13:37;;;;;;;8.50;2.00;;;;;;;;;;5143905;27;82444;-70
2023/03/31 11:16:07;;;;;;;4.47;1.10;;;;;;;;;;5142976;27;83750;-70
2023/03/31 11:18:37;;;;;;;1.73;1.50;;;;;;;;;;5144289;27;85510;-70
2023/03/31 11:21:10;;;;;;;2.33;1.47;;;;;;;;;;5143724;27;82023;-70
2023/03/31 11:23:41;;;;;;;3.40;0.70;;;;;;;;;;5144586;27;81857;-71
2023/03/31 11:26:11;;;;;;;2.87;1.43;;;;;;;;;;5145482;27;83804;-70
2023/03/31 11:28:42;;;;;;;3.67;0.90;;;;;;;;;;5132824;27;82731;-70
2023/03/31 11:31:14;;;;;;;2.17;0.90;;;;;;;;;;5130226;27;81467;-70
2023/03/31 11:33:49;;;;;;;3.50;0.90;;;;;;;;;;5129809;27;81853;-70
2023/03/31 11:36:31;;;;;;;4.23;0.93;;;;;;;;;;5129871;27;83829;-70
2023/03/31 11:39:00;;;;;;;2.33;0.83;;;;;;;;;;5129429;27;83278;-70
2023/03/31 11:41:30;;;;;;;1.97;0.93;;;;;;;;;;5129733;27;81925;-70
2023/03/31 11:44:02;;;;;;;2.00;1.07;;;;;;;;;;5129618;27;81723;-70
2023/03/31 11:46:33;;;;;;;3.27;1.57;;;;;;;;;;5129476;27;84211;-70
2023/03/31 11:49:01;;;;;;;1.63;0.83;;;;;;;;;;5129524;27;83330;-69
2023/03/31 11:51:31;;;;;;;2.23;1.40;;;;;;;;;;5129485;27;82610;-70
2023/03/31 11:54:00;;;;;;;7.60;1.03;;;;;;;;;;5129941;27;81812;-70
2023/03/31 11:56:31;;;;;;;1.40;0.70;;;;;;;;;;5130438;27;84400;-69
2023/03/31 11:59:00;;;;;;;1.43;1.33;;;;;;;;;;5129910;27;82115;-70
2023/03/31 12:01:28;;;;;;;0.80;0.80;;;;;;;;;;5129757;27;81705;-70
2023/03/31 12:03:58;;;;;;;2.17;0.40;;;;;;;;;;5129541;27;81818;-70
2023/03/31 12:06:28;;;;;;;3.50;1.13;;;;;;;;;;5129354;27;83829;-69
2023/03/31 12:09:03;;;;;;;4.57;1.60;;;;;;;;;;5129449;27;82175;-70
2023/03/31 12:11:32;;;;;;;1.97;1.10;;;;;;;;;;5129623;27;81547;-70
2023/03/31 12:14:03;;;;;;;5.00;1.20;;;;;;;;;;5129772;27;84365;-70
2023/03/31 12:16:34;;;;;;;3.33;0.93;;;;;;;;;;5128524;27;83647;-69
2023/03/31 12:19:03;;;;;;;3.40;0.73;;;;;;;;;;5129136;27;83448;-70
2023/03/31 12:21:31;;;;;;;3.00;1.07;;;;;;;;;;5129024;27;81834;-70
2023/03/31 12:24:01;;;;;;;4.80;1.07;;;;;;;;;;5128187;27;81868;-70
2023/03/31 12:26:35;;;;;;;0.33;0.30;;;;;;;;;;5129036;27;82702;-70
2023/03/31 12:29:04;;;;;;;1.27;0.57;;;;;;;;;;5128715;27;83355;-70
2023/03/31 12:31:32;;;;;;;1.87;0.73;;;;;;;;;;5128857;27;82100;-70
2023/03/31 12:34:01;;;;;;;0.73;0.73;;;;;;;;;;5128576;27;81691;-70
2023/03/31 12:36:33;;;;;;;3.63;1.07;;;;;;;;;;5128985;27;83883;-70
2023/03/31 12:39:07;;;;;;;5.63;1.23;;;;;;;;;;5127891;27;83529;-70
2023/03/31 12:41:37;;;;;;;4.07;1.37;;;;;;;;;;5128597;27;81829;-70
2023/03/31 12:44:17;;;;;;;1.70;0.60;;;;;;;;;;5128992;27;81652;-70
2023/03/31 12:46:51;;;;;;;0.30;0.30;;;;;;;;;;5128169;27;83786;-70
2023/03/31 12:49:26;;;;;;;2.47;0.93;;;;;;;;;;5128196;27;83210;-70
2023/03/31 12:51:59;;;;;;;0.50;0.50;;;;;;;;;;5128304;27;82179;-70
2023/03/31 12:54:33;;;;;;;2.57;0.87;;;;;;;;;;5128889;27;81368;-70
2023/03/31 12:57:05;;;;;;;0.87;0.50;;;;;;;;;;5128297;27;82892;-70
2023/03/31 12:59:34;;;;;;;1.23;0.40;;;;;;;;;;5128445;27;83304;-70
2023/03/31 13:02:25;;;;;;;2.40;0.77;;;;;;;;;;5128481;27;82142;-70
2023/03/31 13:04:53;;;;;;;1.37;0.57;;;;;;;;;;5128502;27;81608;-71
2023/03/31 13:07:35;;;;;;;2.63;1.13;;;;;;;;;;5121246;27;86544;-70
2023/03/31 13:10:20;;;;;;;3.93;0.67;;;;;;;;;;5119929;27;82372;-70
2023/03/31 13:12:57;;;;;;;1.83;0.60;;;;;;;;;;5109975;27;82239;-70
2023/03/31 13:15:25;;;;;;;1.13;0.77;;;;;;;;;;5119891;27;81769;-70
2023/03/31 13:17:56;;;;;;;0.87;0.70;;;;;;;;;;5118482;27;84090;-70
2023/03/31 13:20:31;;;;;;;1.27;0.77;;;;;;;;;;5108491;27;82078;-70
2023/03/31 13:23:03;;;;;;;2.17;0.90;;;;;;;;;;5110320;27;83153;-70
2023/03/31 13:25:38;;;;;;;0.83;0.60;;;;;;;;;;5123696;27;81544;-70
2023/03/31 13:28:12;;;;;;;0.60;0.60;;;;;;;;;;5108727;27;83816;-71
2023/03/31 13:30:49;;;;;;;1.33;0.80;;;;;;;;;;5120140;27;83456;-71
2023/03/31 13:33:19;;;;;;;2.90;0.80;;;;;;;;;;5116208;27;82168;-69
2023/03/31 13:35:48;;;;;;;0.80;0.67;;;;;;;;;;5102129;27;81427;-69
2023/03/31 13:38:19;;;;;;;0.60;0.60;;;;;;;;;;5106922;27;82404;-70
2023/03/31 13:40:52;;;;;;;0.43;0.43;;;;;;;;;;5107274;27;83363;-70
2023/03/31 13:43:29;;;;;;;0.40;0.40;;;;;;;;;;5107194;27;81537;-71
2023/03/31 13:46:00;;;;;;;1.43;1.00;;;;;;;;;;5106714;27;81783;-70
2023/03/31 13:48:31;;;;;;;2.73;0.80;;;;;;;;;;5106747;27;82491;-71
2023/03/31 13:51:10;;;;;;;0.70;0.70;;;;;;;;;;5106149;27;83367;-70
2023/03/31 13:53:46;;;;;;;2.47;0.90;;;;;;;;;;5106431;27;82065;-70
2023/03/31 13:56:20;;;;;;;3.23;0.60;;;;;;;;;;5106978;27;81535;-70
2023/03/31 13:59:04;;;;;;;0.87;0.50;;;;;;;;;;5106963;27;84099;-70
2023/03/31 14:01:50;;;;;;;2.93;0.60;;;;;;;;;;5106851;27;83399;-70
2023/03/31 14:04:36;;;;;;;3.83;0.43;;;;;;;;;;5105812;27;82343;-70
2023/03/31 14:07:07;;;;;;;1.40;0.20;;;;;;;;;;5106263;27;81932;-70
2023/03/31 14:09:35;;;;;;;0.50;0.50;;;;;;;;;;5106787;27;83645;-69
2023/03/31 14:12:19;;;;;;;0.53;0.40;;;;;;;;;;5106657;27;83370;-70
2023/03/31 14:14:49;;;;;;;0.73;0.30;;;;;;;;;;5106347;27;82317;-70
2023/03/31 14:17:17;;;;;;;2.63;0.50;;;;;;;;;;5105999;27;81796;-70
2023/03/31 14:19:50;;;;;;;0.60;0.40;;;;;;;;;;5113955;27;84026;-71
2023/03/31 14:22:20;;;;;;;0.20;0.20;;;;;;;;;;5108755;27;83305;-69
2023/03/31 14:24:51;;;;;;;1.90;0.77;;;;;;;;;;5109680;27;82170;-70
2023/03/31 14:27:24;;;;;;;0.87;0.50;;;;;;;;;;5125976;27;81615;-69
2023/03/31 14:29:56;;;;;;;3.53;0.90;;;;;;;;;;5122431;27;84010;-68
2023/03/31 14:32:27;;;;;;;0.30;0.30;;;;;;;;;;5126011;27;83876;-68
2023/03/31 14:35:02;;;;;;;2.13;1.10;;;;;;;;;;5111646;27;82814;-69
2023/03/31 14:37:30;;;;;;;3.63;0.60;;;;;;;;;;5125412;27;82054;-69
2023/03/31 14:39:59;;;;;;;4.43;0.60;;;;;;;;;;5107885;27;83726;-70
2023/03/31 14:42:28;;;;;;;2.00;0.60;;;;;;;;;;5106020;27;85114;-70
2023/03/31 14:44:58;;;;;;;1.17;0.70;;;;;;;;;;5125972;27;84610;-70
2023/03/31 14:47:27;;;;;;;0.90;0.40;;;;;;;;;;5108261;27;81993;-69
2023/03/31 14:49:59;;;;;;;0.80;0.70;;;;;;;;;;5117223;27;83787;-70
2023/03/31 14:52:29;;;;;;;1.30;0.60;;;;;;;;;;5105404;27;84050;-70
2023/03/31 14:54:58;;;;;;;0.30;0.30;;;;;;;;;;5125777;27;82875;-70
2023/03/31 14:57:27;;;;;;;0.30;0.30;;;;;;;;;;5126029;27;81914;-70
2023/03/31 14:59:55;;;;;;;0.40;0.40;;;;;;;;;;5116170;27;83982;-69
2023/03/31 15:02:29;;;;;;;1.13;0.40;;;;;;;;;;5105613;27;84336;-69
2023/03/31 15:04:57;;;;;;;0.40;0.40;;;;;;;;;;5128824;27;83696;-69
2023/03/31 15:07:27;;;;;;;0.63;0.40;;;;;;;;;;5123054;27;82870;-69
2023/03/31 15:09:55;;;;;;;0.40;0.40;;;;;;;;;;5120344;27;83658;-69
2023/03/31 15:12:23;;;;;;;0.57;0.57;;;;;;;;;;5108784;27;87066;-70
2023/03/31 15:14:52;;;;;;;0.43;0.40;;;;;;;;;;5126549;27;84222;-70
2023/03/31 15:17:21;;;;;;;2.40;0.50;;;;;;;;;;5128810;27;81964;-69
2023/03/31 15:19:54;;;;;;;1.33;0.60;;;;;;;;;;5117071;27;83820;-69
2023/03/31 15:22:23;;;;;;;0.60;0.40;;;;;;;;;;5114914;27;84091;-69
2023/03/31 15:24:51;;;;;;;0.83;0.50;;;;;;;;;;5125928;27;84109;-68
2023/03/31 15:27:21;;;;;;;0.43;0.37;;;;;;;;;;5129319;27;82018;-69
2023/03/31 15:30:01;;;;;;;0.33;0.33;;;;;;;;;;5087537;27;83837;-69
2023/03/31 15:32:30;;;;;;;0.30;0.30;;;;;;;;;;5100377;27;85015;-69
2023/03/31 15:35:03;;;;;;;0.83;0.43;;;;;;;;;;5121815;27;83840;-69
2023/03/31 15:37:52;;;;;;;0.30;0.30;;;;;;;;;;5127238;27;82873;-69
2023/03/31 15:40:20;;;;;;;0.67;0.40;;;;;;;;;;5109281;27;83998;-67